createdAt,value
2022-07-29T00:01:19.181Z,100.00
2022-07-29T00:04:21.867Z,100.00
2022-07-29T00:07:23.490Z,100.00
2022-07-29T00:10:24.871Z,100.00
2022-07-29T00:13:31.812Z,100.00
2022-07-29T00:16:34.357Z,100.00
2022-07-29T00:19:35.863Z,100.00
2022-07-29T00:22:38.226Z,100.00
2022-07-29T00:25:39.821Z,100.00
2022-07-29T00:28:41.234Z,100.00
2022-07-29T00:31:42.690Z,100.00
2022-07-29T00:35:02.954Z,100.00
2022-07-29T00:38:04.367Z,100.00
2022-07-29T00:41:05.867Z,100.00
2022-07-29T00:44:07.242Z,100.00
2022-07-29T00:47:09.118Z,100.00
2022-07-29T00:50:11.379Z,100.00
2022-07-29T00:53:12.763Z,100.00
2022-07-29T00:56:14.142Z,100.00
2022-07-29T00:59:15.544Z,100.00
2022-07-29T01:02:17.045Z,100.00
2022-07-29T01:05:19.827Z,100.00
2022-07-29T01:08:21.315Z,100.00
2022-07-29T01:11:22.925Z,100.00
2022-07-29T01:14:24.955Z,100.00
2022-07-29T01:17:33.463Z,100.00
2022-07-29T01:20:50.208Z,100.00
2022-07-29T01:24:10.379Z,100.00
2022-07-29T01:27:18.188Z,100.00
2022-07-29T01:30:19.657Z,100.00
2022-07-29T01:33:43.348Z,100.00
2022-07-29T01:36:45.728Z,100.00
2022-07-29T01:39:47.377Z,100.00
2022-07-29T01:42:52.984Z,100.00
2022-07-29T01:45:57.233Z,100.00
2022-07-29T01:48:59.888Z,100.00
2022-07-29T01:52:12.246Z,100.00
2022-07-29T01:55:17.382Z,100.00
2022-07-29T01:58:18.807Z,100.00
2022-07-29T02:01:21.422Z,100.00
2022-07-29T02:04:29.395Z,100.00
2022-07-29T02:07:31.642Z,100.00
2022-07-29T02:10:33.672Z,100.00
2022-07-29T02:13:35.377Z,100.00
2022-07-29T02:16:36.840Z,100.00
2022-07-29T02:19:38.288Z,100.00
2022-07-29T02:22:40.273Z,100.00
2022-07-29T02:25:42.187Z,100.00
2022-07-29T02:28:44.282Z,100.00
2022-07-29T02:31:45.706Z,100.00
2022-07-29T02:34:47.085Z,100.00
2022-07-29T02:38:08.417Z,100.00
2022-07-29T02:41:12.296Z,100.00
2022-07-29T02:44:15.643Z,100.00
2022-07-29T02:47:17.112Z,100.00
2022-07-29T02:50:18.916Z,100.00
2022-07-29T02:53:21.006Z,100.00
2022-07-29T02:56:25.031Z,100.00
2022-07-29T02:59:28.037Z,100.00
2022-07-29T03:02:29.454Z,100.00
2022-07-29T03:05:33.483Z,100.00
2022-07-29T03:08:34.912Z,100.00
2022-07-29T03:11:45.931Z,100.00
2022-07-29T03:14:51.693Z,100.00
2022-07-29T03:17:53.102Z,100.00
2022-07-29T03:20:54.478Z,100.00
2022-07-29T03:23:55.851Z,100.00
2022-07-29T03:26:57.558Z,100.00
2022-07-29T03:29:58.964Z,100.00
2022-07-29T03:33:00.402Z,100.00
2022-07-29T03:36:03.385Z,100.00
2022-07-29T03:39:04.750Z,100.00
2022-07-29T03:42:06.171Z,100.00
2022-07-29T03:45:08.377Z,100.00
2022-07-29T03:48:10.523Z,100.00
2022-07-29T03:51:11.923Z,100.00
2022-07-29T03:54:13.289Z,100.00
2022-07-29T03:57:14.659Z,100.00
2022-07-29T04:00:19.021Z,100.00
2022-07-29T04:03:20.588Z,100.00
2022-07-29T04:06:22.053Z,100.00
2022-07-29T04:09:23.511Z,100.00
2022-07-29T04:12:24.913Z,100.00
2022-07-29T04:15:26.815Z,100.00
2022-07-29T04:18:33.057Z,100.00
2022-07-29T04:21:38.134Z,100.00
2022-07-29T04:24:41.880Z,100.00
2022-07-29T04:28:04.035Z,100.00
2022-07-29T04:31:05.626Z,100.00
2022-07-29T04:34:07.084Z,100.00
2022-07-29T04:37:08.592Z,100.00
2022-07-29T04:40:10.102Z,100.00
2022-07-29T04:43:12.568Z,100.00
2022-07-29T04:46:15.769Z,100.00
2022-07-29T04:49:17.311Z,100.00
2022-07-29T04:52:18.712Z,100.00
2022-07-29T04:55:20.113Z,100.00
2022-07-29T04:58:21.574Z,100.00
2022-07-29T05:01:23.012Z,100.00
2022-07-29T05:04:24.422Z,100.00
2022-07-29T05:07:25.955Z,100.00
2022-07-29T05:10:27.349Z,100.00
2022-07-29T05:13:28.977Z,100.00
2022-07-29T05:16:47.599Z,100.00
2022-07-29T05:19:48.999Z,100.00
2022-07-29T05:22:50.394Z,100.00
2022-07-29T05:25:51.809Z,100.00
2022-07-29T05:28:54.778Z,100.00
2022-07-29T05:31:56.181Z,100.00
2022-07-29T05:34:57.587Z,100.00
2022-07-29T05:37:58.959Z,100.00
2022-07-29T05:41:00.630Z,100.00
2022-07-29T05:44:02.072Z,100.00
2022-07-29T05:47:03.456Z,100.00
2022-07-29T05:50:05.418Z,100.00
2022-07-29T05:53:19.935Z,100.00
2022-07-29T05:56:21.885Z,100.00
2022-07-29T05:59:27.061Z,100.00
2022-07-29T06:02:31.308Z,100.00
2022-07-29T06:05:33.244Z,100.00
2022-07-29T06:08:37.923Z,100.00
2022-07-29T06:11:40.464Z,100.00
2022-07-29T06:14:41.876Z,100.00
2022-07-29T06:17:59.030Z,100.00
2022-07-29T06:21:02.374Z,100.00
2022-07-29T06:24:03.806Z,100.00
2022-07-29T06:27:05.221Z,100.00
2022-07-29T06:30:08.261Z,100.00
2022-07-29T06:33:09.781Z,100.00
2022-07-29T06:36:11.226Z,100.00
2022-07-29T06:39:13.938Z,100.00
2022-07-29T06:42:15.465Z,100.00
2022-07-29T06:45:17.181Z,100.00
2022-07-29T06:48:18.558Z,100.00
2022-07-29T06:51:22.265Z,100.00
2022-07-29T06:54:24.865Z,100.00
2022-07-29T06:57:26.329Z,100.00
2022-07-29T07:00:27.750Z,100.00
2022-07-29T07:03:29.129Z,100.00
2022-07-29T07:06:30.541Z,100.00
2022-07-29T07:09:40.316Z,100.00
2022-07-29T07:12:42.134Z,100.00
2022-07-29T07:15:43.771Z,100.00
2022-07-29T07:18:46.192Z,100.00
2022-07-29T07:21:47.699Z,100.00
2022-07-29T07:24:49.106Z,100.00
2022-07-29T07:27:50.527Z,98.84
2022-07-29T07:30:52.146Z,96.66
2022-07-29T07:33:54.481Z,94.92
2022-07-29T07:36:56.167Z,94.43
2022-07-29T07:39:57.608Z,92.82
2022-07-29T07:42:59.014Z,91.19
2022-07-29T07:46:00.571Z,88.67
2022-07-29T07:49:02.032Z,84.96
2022-07-29T07:52:03.762Z,82.72
2022-07-29T07:55:05.320Z,82.89
2022-07-29T07:58:06.717Z,81.25
2022-07-29T08:01:08.507Z,83.24
2022-07-29T08:04:09.978Z,85.70
2022-07-29T08:07:11.406Z,85.06
2022-07-29T08:10:13.205Z,84.11
2022-07-29T08:13:14.570Z,82.96
2022-07-29T08:16:16.477Z,83.60
2022-07-29T08:19:18.136Z,84.10
2022-07-29T08:22:19.592Z,81.66
2022-07-29T08:25:21.573Z,79.89
2022-07-29T08:28:25.720Z,78.72
2022-07-29T08:31:27.470Z,76.60
2022-07-29T08:34:29.510Z,74.50
2022-07-29T08:37:30.883Z,73.30
2022-07-29T08:40:32.844Z,74.64
2022-07-29T08:43:38.174Z,75.62
2022-07-29T08:46:40.451Z,77.73
2022-07-29T08:49:41.820Z,79.62
2022-07-29T08:52:43.229Z,78.29
2022-07-29T08:55:45.467Z,78.73
2022-07-29T08:58:48.745Z,74.60
2022-07-29T09:01:53.967Z,73.66
2022-07-29T09:04:55.684Z,76.29
2022-07-29T09:07:57.095Z,75.04
2022-07-29T09:10:59.335Z,75.05
2022-07-29T09:14:01.188Z,72.88
2022-07-29T09:17:02.906Z,72.04
2022-07-29T09:20:11.509Z,72.23
2022-07-29T09:23:12.903Z,71.75
2022-07-29T09:26:27.083Z,71.46
2022-07-29T09:29:32.094Z,70.59
2022-07-29T09:32:36.686Z,67.49
2022-07-29T09:35:38.084Z,64.85
2022-07-29T09:38:39.446Z,65.39
2022-07-29T09:41:47.075Z,66.65
2022-07-29T09:44:49.785Z,66.31
2022-07-29T09:47:51.646Z,62.54
2022-07-29T09:50:53.502Z,59.92
2022-07-29T09:53:55.306Z,59.14
2022-07-29T09:56:56.992Z,57.08
2022-07-29T10:00:09.091Z,56.49
2022-07-29T10:03:10.553Z,56.40
2022-07-29T10:06:14.721Z,56.69
2022-07-29T10:09:16.534Z,56.67
2022-07-29T10:12:21.148Z,54.65
2022-07-29T10:15:23.181Z,54.20
2022-07-29T10:18:24.573Z,52.35
2022-07-29T10:21:35.869Z,50.85
2022-07-29T10:24:38.546Z,50.87
2022-07-29T10:27:40.653Z,50.94
2022-07-29T10:30:42.037Z,50.61
2022-07-29T10:33:47.478Z,46.74
2022-07-29T10:36:55.677Z,47.26
2022-07-29T10:40:35.771Z,46.46
2022-07-29T10:43:38.800Z,47.25
2022-07-29T10:46:41.260Z,46.28
2022-07-29T10:49:42.787Z,45.14
2022-07-29T10:52:57.920Z,43.48
2022-07-29T10:55:59.309Z,42.49
2022-07-29T10:59:22.834Z,45.42
2022-07-29T11:02:54.297Z,45.54
2022-07-29T11:05:56.676Z,46.90
2022-07-29T11:09:18.353Z,44.89
2022-07-29T11:12:37.039Z,44.90
2022-07-29T11:15:54.598Z,43.81
2022-07-29T11:22:45.838Z,44.01
2022-07-29T11:26:08.748Z,45.21
2022-07-29T11:29:20.836Z,46.53
2022-07-29T11:32:25.484Z,46.25
2022-07-29T11:35:38.525Z,46.56
2022-07-29T11:38:41.629Z,47.30
2022-07-29T11:41:43.103Z,46.97
2022-07-29T11:44:55.180Z,46.49
2022-07-29T11:48:29.686Z,46.90
2022-07-29T11:51:32.709Z,47.11
2022-07-29T11:54:57.286Z,47.07
2022-07-29T11:58:03.704Z,47.61
2022-07-29T12:01:06.217Z,48.17
2022-07-29T12:04:07.906Z,49.31
2022-07-29T12:07:11.135Z,50.31
2022-07-29T12:10:19.965Z,50.46
2022-07-29T12:13:37.833Z,50.99
2022-07-29T12:16:39.652Z,49.75
2022-07-29T12:19:46.071Z,49.21
2022-07-29T12:22:49.444Z,48.33
2022-07-29T12:25:50.885Z,49.02
2022-07-29T12:28:52.306Z,49.31
2022-07-29T12:31:58.008Z,48.16
2022-07-29T12:34:59.914Z,47.49
2022-07-29T12:38:01.305Z,45.98
2022-07-29T12:41:04.383Z,45.52
2022-07-29T12:44:06.021Z,46.74
2022-07-29T12:50:13.355Z,47.51
2022-07-29T12:53:14.826Z,48.32
2022-07-29T12:59:40.493Z,48.89
2022-07-29T13:02:42.561Z,48.08
2022-07-29T13:05:49.173Z,48.47
2022-07-29T13:09:01.478Z,48.99
2022-07-29T13:12:03.146Z,48.18
2022-07-29T13:15:15.211Z,48.13
2022-07-29T13:18:30.268Z,49.43
2022-07-29T13:21:31.645Z,49.42
2022-07-29T13:24:33.061Z,49.32
2022-07-29T13:27:34.962Z,49.57
2022-07-29T13:30:36.400Z,49.96
2022-07-29T13:33:46.121Z,49.61
2022-07-29T13:36:47.727Z,48.38
2022-07-29T13:39:52.958Z,48.68
2022-07-29T13:42:54.815Z,48.67
2022-07-29T13:45:56.482Z,49.27
2022-07-29T13:48:58.022Z,49.23
2022-07-29T13:51:59.907Z,48.47
2022-07-29T13:55:01.950Z,47.80
2022-07-29T13:58:04.250Z,49.21
2022-07-29T14:01:05.995Z,46.93
2022-07-29T14:04:07.540Z,47.28
2022-07-29T14:07:09.078Z,47.98
2022-07-29T14:10:11.367Z,46.50
2022-07-29T14:13:21.840Z,45.17
2022-07-29T14:16:26.994Z,45.68
2022-07-29T14:19:28.489Z,44.81
2022-07-29T14:22:30.404Z,45.59
2022-07-29T14:25:32.415Z,45.03
2022-07-29T14:28:37.875Z,45.68
2022-07-29T14:31:41.697Z,45.23
2022-07-29T14:34:43.422Z,45.02
2022-07-29T14:37:44.917Z,45.90
2022-07-29T14:40:47.588Z,44.88
2022-07-29T14:43:54.409Z,44.26
2022-07-29T14:46:55.899Z,44.55
2022-07-29T14:49:57.271Z,45.57
2022-07-29T14:52:58.704Z,44.98
2022-07-29T14:56:10.360Z,45.20
2022-07-29T14:59:21.476Z,45.31
2022-07-29T15:02:25.644Z,44.69
2022-07-29T15:05:37.634Z,44.35
2022-07-29T15:08:39.055Z,44.84
2022-07-29T15:11:40.455Z,44.01
2022-07-29T15:14:41.830Z,44.97
2022-07-29T15:17:43.352Z,43.94
2022-07-29T15:20:47.045Z,42.04
2022-07-29T15:23:48.470Z,41.57
2022-07-29T15:26:49.913Z,41.07
2022-07-29T15:29:51.432Z,41.77
2022-07-29T15:32:57.501Z,42.09
2022-07-29T15:35:58.924Z,41.89
2022-07-29T15:39:00.395Z,41.54
2022-07-29T15:42:01.938Z,42.78
2022-07-29T15:45:03.916Z,41.60
2022-07-29T15:48:06.141Z,40.78
2022-07-29T15:51:07.694Z,41.01
2022-07-29T15:54:09.141Z,41.86
2022-07-29T15:57:10.669Z,42.75
2022-07-29T16:00:12.243Z,44.03
2022-07-29T16:03:13.687Z,45.04
2022-07-29T16:06:15.109Z,44.59
2022-07-29T16:09:16.636Z,42.61
2022-07-29T16:12:18.033Z,41.74
2022-07-29T16:15:19.533Z,42.66
2022-07-29T16:18:20.992Z,43.20
2022-07-29T16:21:31.717Z,44.02
2022-07-29T16:24:33.112Z,44.28
2022-07-29T16:27:37.519Z,44.46
2022-07-29T16:30:39.610Z,45.68
2022-07-29T16:33:55.067Z,45.81
2022-07-29T16:36:57.318Z,45.59
2022-07-29T16:39:58.705Z,46.39
2022-07-29T16:43:00.082Z,46.65
2022-07-29T16:46:01.608Z,46.59
2022-07-29T16:49:04.321Z,45.96
2022-07-29T16:52:05.851Z,46.13
2022-07-29T16:55:07.474Z,45.89
2022-07-29T16:58:08.875Z,46.32
2022-07-29T17:01:10.340Z,46.59
2022-07-29T17:04:14.791Z,45.69
2022-07-29T17:07:16.555Z,46.54
2022-07-29T17:10:17.975Z,46.01
2022-07-29T17:13:19.499Z,46.41
2022-07-29T17:16:24.645Z,47.23
2022-07-29T17:19:26.357Z,46.69
2022-07-29T17:22:30.789Z,47.12
2022-07-29T17:25:33.167Z,45.79
2022-07-29T17:28:34.625Z,43.53
2022-07-29T17:31:36.097Z,42.35
2022-07-29T17:34:37.863Z,41.41
2022-07-29T17:37:39.240Z,40.54
2022-07-29T17:40:40.651Z,42.96
2022-07-29T17:43:42.239Z,41.96
2022-07-29T17:46:43.720Z,42.50
2022-07-29T17:49:45.213Z,43.46
2022-07-29T17:52:46.691Z,43.52
2022-07-29T17:55:48.769Z,44.13
2022-07-29T17:58:50.553Z,44.51
2022-07-29T18:01:53.212Z,45.07
2022-07-29T18:04:54.759Z,44.93
2022-07-29T18:07:56.356Z,46.12
2022-07-29T18:10:57.762Z,46.55
2022-07-29T18:13:59.158Z,47.63
2022-07-29T18:17:03.933Z,47.39
2022-07-29T18:20:05.738Z,48.78
2022-07-29T18:23:07.251Z,49.08
2022-07-29T18:26:08.730Z,49.21
2022-07-29T18:29:10.509Z,49.21
2022-07-29T18:32:12.293Z,49.46
2022-07-29T18:35:13.688Z,49.83
2022-07-29T18:38:15.104Z,50.44
2022-07-29T18:41:16.525Z,51.90
2022-07-29T18:44:18.832Z,52.03
2022-07-29T18:47:20.266Z,52.56
2022-07-29T18:50:28.255Z,53.51
2022-07-29T18:53:30.503Z,54.77
2022-07-29T18:56:38.479Z,56.96
2022-07-29T18:59:39.884Z,56.68
2022-07-29T19:02:41.366Z,58.22
2022-07-29T19:05:43.941Z,59.67
2022-07-29T19:08:45.345Z,60.34
2022-07-29T19:11:46.761Z,61.70
2022-07-29T19:14:48.174Z,63.23
2022-07-29T19:17:49.607Z,64.88
2022-07-29T19:20:51.053Z,67.47
2022-07-29T19:24:05.839Z,70.07
2022-07-29T19:27:09.057Z,68.15
2022-07-29T19:30:10.633Z,67.26
2022-07-29T19:33:14.572Z,67.57
2022-07-29T19:36:16.556Z,68.24
2022-07-29T19:39:17.949Z,67.39
2022-07-29T19:42:34.798Z,68.66
2022-07-29T19:45:36.229Z,69.95
2022-07-29T19:48:37.784Z,71.20
2022-07-29T19:51:39.670Z,69.54
2022-07-29T19:54:41.218Z,71.31
2022-07-29T19:57:42.784Z,71.50
2022-07-29T20:00:44.490Z,72.48
2022-07-29T20:03:46.615Z,74.29
2022-07-29T20:06:49.488Z,75.40
2022-07-29T20:09:50.917Z,76.78
2022-07-29T20:12:55.202Z,74.92
2022-07-29T20:15:56.858Z,75.42
2022-07-29T20:18:58.397Z,76.01
2022-07-29T20:21:59.801Z,77.36
2022-07-29T20:25:01.198Z,78.61
2022-07-29T20:28:02.600Z,79.56
2022-07-29T20:31:04.033Z,80.04
2022-07-29T20:34:05.641Z,81.21
2022-07-29T20:37:10.417Z,81.40
2022-07-29T20:40:12.540Z,81.75
2022-07-29T20:43:14.184Z,82.36
2022-07-29T20:46:15.791Z,83.28
2022-07-29T20:49:17.432Z,83.04
2022-07-29T20:52:19.594Z,82.68
2022-07-29T20:55:21.192Z,82.63
2022-07-29T20:58:22.631Z,83.17
2022-07-29T21:01:24.929Z,83.02
2022-07-29T21:04:30.515Z,83.59
2022-07-29T21:07:32.439Z,83.44
2022-07-29T21:10:33.816Z,82.89
2022-07-29T21:13:38.387Z,82.55
2022-07-29T21:16:39.848Z,81.71
2022-07-29T21:19:41.266Z,81.83
2022-07-29T21:22:42.745Z,81.66
2022-07-29T21:25:44.139Z,80.39
2022-07-29T21:28:45.551Z,80.45
2022-07-29T21:31:51.513Z,81.30
2022-07-29T21:34:52.940Z,82.07
2022-07-29T21:37:54.489Z,83.18
2022-07-29T21:40:56.051Z,83.72
2022-07-29T21:43:58.341Z,83.95
2022-07-29T21:47:01.359Z,85.17
2022-07-29T21:50:03.108Z,83.50
2022-07-29T21:53:04.572Z,83.96
2022-07-29T21:56:07.596Z,84.27
2022-07-29T21:59:12.832Z,85.44
2022-07-29T22:02:14.428Z,86.21
2022-07-29T22:05:15.906Z,89.48
2022-07-29T22:08:17.357Z,90.95
2022-07-29T22:11:18.783Z,91.41
2022-07-29T22:14:22.258Z,93.46
2022-07-29T22:17:24.367Z,94.67
2022-07-29T22:20:25.783Z,96.82
2022-07-29T22:23:27.212Z,97.64
2022-07-29T22:26:28.692Z,99.67
2022-07-29T22:29:30.182Z,100.00
2022-07-29T22:32:31.578Z,100.00
2022-07-29T22:35:32.989Z,100.00
2022-07-29T22:38:34.467Z,100.00
2022-07-29T22:41:35.933Z,100.00
2022-07-29T22:44:37.369Z,100.00
2022-07-29T22:47:47.921Z,100.00
2022-07-29T22:50:49.981Z,100.00
2022-07-29T22:53:51.404Z,100.00
2022-07-29T22:56:52.839Z,100.00
2022-07-29T22:59:54.262Z,100.00
2022-07-29T23:02:55.700Z,100.00
2022-07-29T23:05:57.105Z,100.00
2022-07-29T23:08:58.518Z,100.00
2022-07-29T23:11:59.932Z,100.00
2022-07-29T23:15:01.338Z,100.00
2022-07-29T23:18:02.988Z,100.00
2022-07-29T23:21:04.449Z,100.00
2022-07-29T23:24:05.938Z,100.00
2022-07-29T23:27:07.337Z,100.00
2022-07-29T23:30:09.015Z,100.00
2022-07-29T23:33:10.469Z,100.00
2022-07-29T23:36:11.902Z,100.00
2022-07-29T23:39:13.540Z,100.00
2022-07-29T23:42:14.975Z,100.00
2022-07-29T23:45:16.393Z,100.00
2022-07-29T23:48:17.775Z,100.00
2022-07-29T23:51:19.285Z,100.00
2022-07-29T23:54:20.720Z,100.00
2022-07-29T23:57:24.086Z,100.00
